KIFP/IFP METAR and TAF weather

Enter ICAO airport designator
Station Type Date Time Source
KIFP METAR 2020/06/01 16:53 UTC NOAA

KIFP 011653Z 21005KT 20SM BKN120 32/00 A2988


Station Type Date Time Source
KIFP Decoded METAR 2020/06/01 16:53 UTC NOAA

Bullhead City, Laughlin/Bullhead International Airport, AZ, United States (KIFP) 35-09-27N 114-33-34W
Jun 01, 2020 - 12:53 PM EDT / 2020.06.01 1653 UTC
Wind: from the SSW (210 degrees) at 6 MPH (5 KT):0
Visibility: 20 mile(s):0
Sky conditions: mostly cloudy
Temperature: 89 F (32 C)
Dew Point: 32 F (0 C)
Relative Humidity: 12%
Pressure (altimeter): 29.88 in. Hg (1011 hPa)
ob: KIFP 011653Z 21005KT 20SM BKN120 32/00 A2988
cycle: 17

Station Type Date Time Source
KIFP TAF 2020/06/01 12:28 UTC NOAA

TAF KIFP 011126Z 0112/0212 VRB03KT P6SM FEW250
FM011700 20012KT P6SM SCT250
FM012100 18014G21KT P6SM SCT250
FM020200 19007KT P6SM BKN250

Example: see airport list